Getzville 2E NY

43° 01' 25"N, 78° 44' 55"W, Elevation 589 ft.
Eastern Time

Hourly observations for the last 72 hours

Date Time Temperature (°F) Humi-
dity

(%)
Wind
(mph)
Pressure Rain (in) Sun
(W/m2)
ET
(in)
Air Dew 6 Hour 1 Hr 3 Hr 6 Hr Day
Alt
(in)
Sea
Level

(mb)
Max Min
20 05:00 15.4 10.3 80 NNE 4 G 12 30.26 1024.9 0.00 0 0.004
20 04:00 18.0 10.5 72 NW 4 G 11 30.22 1023.5 0.00 0 0.003
20 03:00 19.8 11.6 70 NW 6 G 18 30.21 1023.0 0.00 0 0.002
20 02:00 22.9 15.2 72 WNW 4 G 16 30.16 1021.3 0.00 0 0.001
20 01:00 23.7 15.4 34.0 23.6 70 W 4 G 9 30.12 1020.1 0.01 0.00 0 0.000
20 00:00 24.3 15.3 68 WNW 8 G 16 30.11 1019.8 0.36 0 0.031
19 23:00 26.2 17.8 70 W 9 G 15 30.08 1018.6 0.36 0 0.030
19 22:00 28.1 18.9 68 NW 7 G 17 30.05 1017.6 0.01 0.36 0 0.029
19 21:00 29.6 21.4 71 WNW 7 G 25 30.01 1016.2 0.36 0 0.028
19 20:00 31.7 24.0 73 NW 10 G 20 29.97 1014.9 0.01 0.36 0 0.027
19 19:00 34.0 26.3 39.5 33.9 73 WNW 7 G 17 29.94 1014.0 0.02 0.08 0.26 0.35 0 0.026
19 18:00 35.4 28.6 76 WNW 8 G 18 29.90 1012.4 0.03 0.33 0 0.025
19 17:00 36.8 31.8 82 SW 4 G 15 29.86 1011.3 0.03 0.30 11 0.024
19 16:00 37.9 32.6 81 W 6 G 16 29.83 1010.3 0.04 0.18 0.27 58 0.022
19 15:00 38.6 33.3 81 W 8 G 16 29.81 1009.3 0.06 0.23 84 0.019
19 14:00 39.2 33.9 81 WSW 7 G 23 29.77 1008.3 0.08 0.17 132 0.015
19 13:00 39.0 33.7 39.1 35.4 81 WSW 6 G 14 29.76 1007.8 0.09 0.09 0.09 0.09 207 0.012
19 12:00 38.7 33.4 81 WSW 5 G 21 29.76 1008.0 0.00 130 0.010
19 11:00 38.5 32.9 80 SW 3 G 13 29.78 1008.4 0.00 49 0.009
19 10:00 38.3 32.4 79 SW 4 G 11 29.77 1008.2 0.00 14 0.008
19 09:00 37.3 31.4 79 SW 5 G 13 29.75 1007.3 0.00 25 0.007
19 08:00 36.7 30.8 79 SW 4 G 15 29.73 1006.9 0.00 0 0.006
19 07:00 35.4 29.5 35.4 28.7 79 SW 8 G 12 29.72 1006.5 0.00 0 0.005
19 06:00 34.4 28.3 78 SW 5 G 10 29.72 1006.6 0.00 0 0.004
19 05:00 33.5 27.4 78 SSW 3 G 8 29.75 1007.5 0.00 0 0.003
19 04:00 31.9 25.5 77 SW 4 G 9 29.78 1008.4 0.00 0 0.002
19 03:00 30.8 24.8 78 SW 4 G 11 29.81 1009.4 0.00 0 0.001
19 02:00 30.1 24.1 78 SSW 6 G 12 29.82 1010.0 0.00 0 0.000
19 01:00 28.7 23.6 28.7 18.2 81 SW 4 G 10 29.85 1010.9 0.00 0 0.000
19 00:00 27.3 22.8 83 SSW 3 G 7 29.89 1012.2 0.01 0 0.011
18 23:00 26.8 22.6 84 SSW 1 G 6 29.93 1013.7 0.01 0 0.011
18 22:00 25.1 22.0 88 SW 3 G 6 29.99 1015.4 0.01 0 0.011
18 21:00 20.4 17.2 87 Calm 30.02 1016.7 0.01 0 0.011
18 20:00 19.7 16.2 86 Calm 30.04 1017.4 0.01 0 0.011
18 19:00 18.4 14.6 23.4 18.4 85 ESE 0 G 2 30.05 1017.6 0.01 0.01 0 0.011
18 18:00 19.7 15.7 84 ESE 2 G 3 30.07 1018.3 0.01 0 0.011
18 17:00 21.2 16.8 83 E 3 G 6 30.07 1018.4 0.01 5 0.011
18 16:00 21.9 17.0 81 E 1 G 4 30.07 1018.5 0.01 0.01 30 0.010
18 15:00 23.2 17.9 80 ENE 0 G 2 30.07 1018.5 0.01 0.01 81 0.008
18 14:00 21.3 16.9 83 E 3 G 5 30.07 1018.4 0.00 229 0.006
18 13:00 22.0 17.4 23.8 21.4 82 ENE 3 G 6 30.07 1018.4 0.00 125 0.004
18 12:00 21.4 16.8 82 N 2 G 6 30.07 1018.4 0.00 125 0.003
18 11:00 23.6 18.9 82 N 3 G 8 30.06 1017.9 0.00 109 0.001
18 10:00 22.9 17.4 79 NW 8 G 16 30.02 1016.7 0.00 79 0.000
18 09:00 22.8 18.4 83 NNW 2 G 9 29.99 1015.7 0.00 32 0.000
18 08:00 22.2 17.5 82 WNW 4 G 11 29.95 1014.3 0.00 5 0.000
18 07:00 22.5 17.8 25.2 22.4 82 WNW 4 G 9 29.91 1012.9 0.00 0 0.000
18 06:00 22.9 18.8 84 NW 6 G 11 29.87 1011.5 0.00 0 0.000
18 05:00 23.4 20.1 87 WNW 5 G 11 29.82 1009.8 0.00 0 0.000
18 04:00 24.6 21.8 89 WNW 3 G 10 29.79 1008.9 0.00 0 0.000
18 03:00 25.1 21.8 87 WNW 5 G 12 29.77 1008.0 0.00 0 0.000
18 02:00 24.8 21.2 86 WNW 6 G 13 29.73 1006.9 0.00 0 0.000
18 01:00 23.8 20.2 25.2 23.1 86 NW 4 G 9 29.70 1005.9 0.00 0 0.000
18 00:00 24.7 21.1 86 W 2 G 6 29.69 1005.3 0.00 0 0.001
17 23:00 24.5 21.2 87 NW 3 G 9 29.67 1004.8 0.00 0 0.001
17 22:00 24.2 20.9 87 W 3 G 8 29.64 1003.8 0.00 0 0.001
17 21:00 23.3 20.0 87 WNW 5 G 10 29.60 1002.5 0.00 0 0.001
17 20:00 23.3 20.0 87 NW 7 G 16 29.57 1001.3 0.00 0 0.001
17 19:00 23.6 20.8 25.8 23.5 89 NW 8 G 23 29.52 999.7 0.00 0 0.001
17 18:00 24.9 22.4 90 NNW 8 G 21 29.46 997.8 0.00 0 0.001
17 17:00 25.1 22.6 90 NW 6 G 12 29.39 995.4 0.00 0 0.001
17 16:00 25.2 22.7 90 NW 7 G 17 29.34 993.6 0.00 7 0.001
17 15:00 25.2 22.7 90 NW 7 G 12 29.29 991.8 0.00 11 0.001
17 14:00 25.1 22.6 90 NW 6 G 13 29.25 990.5 0.00 14 0.001
17 13:00 25.7 23.4 27.8 25.6 91 N 5 G 14 29.22 989.4 0.00 28 0.000
17 12:00 26.5 24.2 91 NW 5 G 10 29.21 989.2 0.00 39 0.000
17 11:00 27.6 25.3 91 NW 3 G 5 29.20 988.9 0.00 12 0.000
17 10:00 26.8 24.5 91 NNW 0 G 4 29.18 988.4 0.00 14 0.000
17 09:00 26.8 24.5 91 E 8 G 17 29.16 987.5 0.00 11 0.000
17 08:00 27.1 24.8 91 ENE 9 G 16 29.18 988.1 0.00 0 0.000
17 07:00 27.7 25.4 27.8 21.9 91 ENE 7 G 19 29.23 989.9 0.00 0 0.000
17 06:00 26.7 24.4 91 ENE 6 G 13 29.24 990.2 0.00 0 0.000

Data generated by WxSolution Version 1.9.1.5, Build 2018.05.20.